createdAt,value
2019-03-05T00:04:18.827Z,25.37
2019-03-05T00:09:42.066Z,24.70
2019-03-05T00:15:05.549Z,30.50
2019-03-05T00:20:26.790Z,31.47
2019-03-05T00:25:49.827Z,28.93
2019-03-05T00:31:28.575Z,29.43
2019-03-05T00:37:00.502Z,35.23
2019-03-05T00:42:59.657Z,27.70
2019-03-05T00:49:01.119Z,26.83
2019-03-05T00:54:59.829Z,29.40
2019-03-05T01:00:50.376Z,29.57
2019-03-05T01:06:17.234Z,31.50
2019-03-05T01:11:43.223Z,31.53
2019-03-05T01:17:07.377Z,31.17
2019-03-05T01:22:30.457Z,29.70
2019-03-05T01:27:51.998Z,30.43
2019-03-05T01:33:15.013Z,69.07
2019-03-05T01:38:56.188Z,37.13
2019-03-05T01:44:19.204Z,37.17
2019-03-05T01:49:41.801Z,32.70
2019-03-05T01:55:04.784Z,29.80
2019-03-05T02:00:26.988Z,30.63
2019-03-05T02:05:50.177Z,29.47
2019-03-05T02:11:12.824Z,27.43
2019-03-05T02:16:35.187Z,28.47
2019-03-05T02:21:57.099Z,28.37
2019-03-05T02:28:22.376Z,28.27
2019-03-05T02:34:18.534Z,29.60
2019-03-05T02:40:14.499Z,28.60
2019-03-05T02:45:43.786Z,28.47
2019-03-05T02:51:56.023Z,29.77
2019-03-05T02:57:16.335Z,27.93
2019-03-05T03:02:57.352Z,31.13
2019-03-05T03:08:20.383Z,28.97
2019-03-05T03:13:42.138Z,29.67
2019-03-05T03:19:04.561Z,33.87
2019-03-05T03:24:28.183Z,31.47
2019-03-05T03:29:50.688Z,30.40
2019-03-05T03:35:14.310Z,34.50
2019-03-05T03:40:35.787Z,33.87
2019-03-05T03:45:58.016Z,32.73
2019-03-05T03:51:20.833Z,38.13
2019-03-05T03:56:42.730Z,36.97
2019-03-05T04:02:04.325Z,34.67
2019-03-05T04:07:25.523Z,35.83
2019-03-05T04:12:49.721Z,32.30
2019-03-05T04:18:12.399Z,43.80
2019-03-05T04:23:34.980Z,42.07
2019-03-05T04:28:56.837Z,55.20
2019-03-05T04:34:18.554Z,41.63
2019-03-05T04:39:42.848Z,91.97
2019-03-05T04:45:50.707Z,71.37
2019-03-05T04:51:18.887Z,56.10
2019-03-05T04:56:40.112Z,44.90
2019-03-05T05:02:27.957Z,45.53
2019-03-05T05:07:52.784Z,42.40
2019-03-05T05:13:14.253Z,45.83
2019-03-05T05:18:35.754Z,45.77
2019-03-05T05:23:59.948Z,37.07
2019-03-05T05:29:23.415Z,40.40
2019-03-05T05:34:44.651Z,35.17
2019-03-05T05:40:26.382Z,34.93
2019-03-05T05:45:49.453Z,41.67
2019-03-05T05:51:13.305Z,42.23
2019-03-05T05:56:34.609Z,40.67
2019-03-05T06:01:55.971Z,40.17
2019-03-05T06:07:17.514Z,35.13
2019-03-05T06:12:39.937Z,29.30
2019-03-05T06:18:02.319Z,29.33
2019-03-05T06:23:24.141Z,31.33
2019-03-05T06:28:45.565Z,28.43
2019-03-05T06:34:06.788Z,30.17
2019-03-05T06:39:28.377Z,28.23
2019-03-05T06:44:50.572Z,27.70
2019-03-05T06:50:11.925Z,27.73
2019-03-05T06:55:33.913Z,29.07
2019-03-05T07:00:54.976Z,36.83
2019-03-05T07:06:50.370Z,35.07
2019-03-05T07:12:34.708Z,35.00
2019-03-05T07:18:00.766Z,35.05
2019-03-05T07:24:02.117Z,31.13
2019-03-05T07:29:23.589Z,37.47
2019-03-05T07:34:46.581Z,32.47
2019-03-05T07:40:09.389Z,32.78
2019-03-05T07:45:30.576Z,30.50
2019-03-05T07:50:51.983Z,29.73
2019-03-05T07:56:13.073Z,33.75
2019-03-05T08:01:36.764Z,32.15
2019-03-05T08:06:58.650Z,28.75
2019-03-05T08:12:48.037Z,30.12
2019-03-05T08:18:09.240Z,29.40
2019-03-05T08:23:30.870Z,31.35
2019-03-05T08:28:52.753Z,33.67
2019-03-05T08:34:14.131Z,30.12
2019-03-05T08:39:35.972Z,30.90
2019-03-05T08:44:57.084Z,30.05
2019-03-05T08:50:18.955Z,30.57
2019-03-05T08:55:41.001Z,33.42
2019-03-05T09:01:03.915Z,29.05
2019-03-05T09:06:24.951Z,26.05
2019-03-05T09:11:46.262Z,26.93
2019-03-05T09:17:07.680Z,30.20
2019-03-05T09:22:29.415Z,27.73
2019-03-05T09:27:50.627Z,27.60
2019-03-05T09:33:11.928Z,27.13
2019-03-05T09:38:34.111Z,26.75
2019-03-05T09:43:54.955Z,27.80
2019-03-05T09:49:16.133Z,27.65
2019-03-05T09:54:37.795Z,27.58
2019-03-05T10:00:00.361Z,24.67
2019-03-05T10:05:26.294Z,24.20
2019-03-05T10:10:47.363Z,24.32
2019-03-05T10:16:09.703Z,26.75
2019-03-05T10:21:30.812Z,31.80
2019-03-05T10:26:53.010Z,28.75
2019-03-05T10:32:15.174Z,28.98
2019-03-05T10:37:36.979Z,27.77
2019-03-05T10:43:08.043Z,26.40
2019-03-05T10:48:22.991Z,24.43
2019-03-05T10:53:49.320Z,25.37
2019-03-05T10:59:10.541Z,24.47
2019-03-05T11:04:32.273Z,28.20
2019-03-05T11:09:53.817Z,27.37
2019-03-05T11:15:21.315Z,27.70
2019-03-05T11:20:43.007Z,27.52
2019-03-05T11:26:04.268Z,25.25
2019-03-05T11:31:25.611Z,25.12
2019-03-05T11:36:47.067Z,26.23
2019-03-05T11:42:09.156Z,25.45
2019-03-05T11:47:33.269Z,27.22
2019-03-05T11:52:55.449Z,24.23
2019-03-05T11:58:18.215Z,25.10
2019-03-05T12:03:39.925Z,28.57
2019-03-05T12:09:01.514Z,26.42
2019-03-05T12:14:23.409Z,25.35
2019-03-05T12:19:44.993Z,24.52
2019-03-05T12:25:08.054Z,25.35
2019-03-05T12:30:29.534Z,22.35
2019-03-05T12:35:50.765Z,21.20
2019-03-05T12:41:12.212Z,32.08
2019-03-05T12:46:33.333Z,24.37
2019-03-05T12:51:55.270Z,33.83
2019-03-05T12:57:16.865Z,27.90
2019-03-05T13:02:39.344Z,26.27
2019-03-05T13:08:02.010Z,23.32
2019-03-05T13:13:23.717Z,21.23
2019-03-05T13:18:45.074Z,23.65
2019-03-05T13:24:10.081Z,22.45
2019-03-05T13:29:29.580Z,21.42
2019-03-05T13:34:50.640Z,21.30
2019-03-05T13:40:14.727Z,21.90
2019-03-05T13:45:36.470Z,21.80
2019-03-05T13:51:34.578Z,24.15
2019-03-05T13:57:32.226Z,23.30
2019-03-05T14:03:06.780Z,22.17
2019-03-05T14:09:14.876Z,20.75
2019-03-05T14:14:36.890Z,25.20
2019-03-05T14:19:59.211Z,23.20
2019-03-05T14:25:20.865Z,20.75
2019-03-05T14:30:42.943Z,22.62
2019-03-05T14:36:04.459Z,22.73
2019-03-05T14:41:25.783Z,21.17
2019-03-05T14:46:52.597Z,18.82
2019-03-05T14:52:14.037Z,22.82
2019-03-05T14:57:35.816Z,23.35
2019-03-05T15:03:00.591Z,22.05
2019-03-05T15:08:27.424Z,31.27
2019-03-05T15:13:49.964Z,39.20
2019-03-05T15:19:20.915Z,64.53
2019-03-05T15:24:35.123Z,46.50
2019-03-05T15:29:56.652Z,40.52
2019-03-05T15:35:18.862Z,42.30
2019-03-05T15:40:44.473Z,54.20
2019-03-05T15:46:14.964Z,78.47
2019-03-05T15:51:37.201Z,97.82
2019-03-05T15:56:58.931Z,49.25
2019-03-05T16:02:22.381Z,210.28
2019-03-05T16:07:48.070Z,50.67
2019-03-05T16:13:09.856Z,120.65
2019-03-05T16:18:32.970Z,70.05
2019-03-05T16:23:56.319Z,95.28
2019-03-05T16:29:20.957Z,157.75
2019-03-05T16:35:19.553Z,89.72
2019-03-05T16:41:20.582Z,62.85
2019-03-05T16:47:16.163Z,50.58
2019-03-05T16:52:56.174Z,44.15
2019-03-05T16:58:48.730Z,31.65
2019-03-05T17:04:37.258Z,45.17
2019-03-05T17:10:25.787Z,45.40
2019-03-05T17:15:46.688Z,57.08
2019-03-05T17:21:10.821Z,33.80
2019-03-05T17:26:50.115Z,29.42
2019-03-05T17:32:13.071Z,27.65
2019-03-05T17:37:37.704Z,16.20
2019-03-05T17:43:02.115Z,19.32
2019-03-05T17:48:27.783Z,17.30
2019-03-05T17:53:55.583Z,19.57
2019-03-05T17:59:19.700Z,19.37
2019-03-05T18:04:44.618Z,24.23
2019-03-05T18:10:10.000Z,26.40
2019-03-05T18:15:32.005Z,18.05
2019-03-05T18:20:53.892Z,14.00
2019-03-05T18:26:21.161Z,17.05
2019-03-05T18:31:44.525Z,12.55
2019-03-05T18:37:06.759Z,14.80
2019-03-05T18:42:41.492Z,13.80
2019-03-05T18:48:04.419Z,13.88
2019-03-05T18:53:51.376Z,35.68
2019-03-05T18:59:13.999Z,12.98
2019-03-05T19:04:37.224Z,14.53
2019-03-05T19:10:02.101Z,14.33
2019-03-05T19:15:23.516Z,21.40
2019-03-05T19:20:50.175Z,10.78
2019-03-05T19:26:21.764Z,18.70
2019-03-05T19:31:42.915Z,9.08
2019-03-05T19:37:04.462Z,13.32
2019-03-05T19:42:31.334Z,10.30
2019-03-05T19:47:54.282Z,11.10
2019-03-05T19:53:17.261Z,11.48
2019-03-05T19:58:42.399Z,10.53
2019-03-05T20:04:11.473Z,13.70
2019-03-05T20:09:30.881Z,7.90
2019-03-05T20:14:59.795Z,9.13
2019-03-05T20:20:21.460Z,9.25
2019-03-05T20:25:44.505Z,11.50
2019-03-05T20:31:10.467Z,11.65
2019-03-05T20:36:44.774Z,10.50
2019-03-05T20:42:09.306Z,11.40
2019-03-05T20:47:33.013Z,7.05
2019-03-05T20:52:57.203Z,11.40
2019-03-05T20:58:22.997Z,8.85
2019-03-05T21:03:46.887Z,6.28
2019-03-05T21:09:22.887Z,11.60
2019-03-05T21:14:45.670Z,9.68
2019-03-05T21:20:09.291Z,10.38
2019-03-05T21:25:43.730Z,8.00
2019-03-05T21:31:07.738Z,7.40
2019-03-05T21:36:34.497Z,11.00
2019-03-05T21:42:07.406Z,6.28
2019-03-05T21:47:32.046Z,6.65
2019-03-05T21:52:56.971Z,10.13
2019-03-05T21:58:22.153Z,10.55
2019-03-05T22:04:06.614Z,9.55
2019-03-05T22:09:34.320Z,11.70
2019-03-05T22:15:11.455Z,11.83
2019-03-05T22:20:38.104Z,8.90
2019-03-05T22:26:10.925Z,14.63
2019-03-05T22:31:41.954Z,8.53
2019-03-05T22:37:07.909Z,9.93
2019-03-05T22:42:35.339Z,11.18
2019-03-05T22:48:13.767Z,10.93
2019-03-05T22:53:56.633Z,9.08
2019-03-05T22:59:31.832Z,9.90
2019-03-05T23:05:22.008Z,9.90
2019-03-05T23:11:00.111Z,9.93
2019-03-05T23:16:25.408Z,6.50
2019-03-05T23:21:50.275Z,4.72
2019-03-05T23:27:38.940Z,6.15
2019-03-05T23:33:17.713Z,5.10
2019-03-05T23:39:00.209Z,5.87
2019-03-05T23:44:23.291Z,4.33
2019-03-05T23:49:46.237Z,5.15
2019-03-05T23:55:11.810Z,6.15
